Time;durP1;ratioP1;P1;durP2;ratioP2;P2;SDS_P1;SDS_P2;PMS_P1;PMS_P2;Temp;Humidity;BMP_temperature;BMP_pressure;BME280_temperature;BME280_humidity;BME280_pressure;Samples;Min_cycle;Max_cycle;Signal;HPM_P1;HPM_P2
2023/04/11 00:01:36;;;;;;;9.80;7.30;;;;;;;7.09;100.00;100257.92;105161;1262;68702;-49
2023/04/11 00:04:05;;;;;;;9.70;7.00;;;;;;;7.02;100.00;100254.73;105150;1260;72800;-47
2023/04/11 00:06:33;;;;;;;12.40;7.60;;;;;;;6.95;100.00;100249.39;105929;1259;61462;-45
2023/04/11 00:09:01;;;;;;;7.90;7.10;;;;;;;6.89;100.00;100246.69;105257;1259;59674;-49
2023/04/11 00:11:31;;;;;;;9.90;7.30;;;;;;;6.80;100.00;100243.14;105238;1261;72576;-51
2023/04/11 00:13:59;;;;;;;13.40;8.30;;;;;;;6.75;100.00;100244.17;105556;1262;68023;-52
2023/04/11 00:16:29;;;;;;;8.90;7.20;;;;;;;6.70;100.00;100243.78;105006;1259;71839;-50
2023/04/11 00:18:57;;;;;;;7.90;7.10;;;;;;;6.65;100.00;100242.28;105220;1263;61206;-51
2023/04/11 00:21:25;;;;;;;7.80;5.90;;;;;;;6.60;100.00;100243.67;105882;1259;59779;-47
2023/04/11 00:23:54;;;;;;;10.20;7.70;;;;;;;6.55;100.00;100241.46;105372;1260;72184;-51
2023/04/11 00:26:22;;;;;;;18.60;7.80;;;;;;;6.50;100.00;100242.11;105093;1259;66439;-50
2023/04/11 00:28:51;;;;;;;12.20;7.80;;;;;;;6.45;100.00;100237.25;104961;1261;73834;-50
2023/04/11 00:31:20;;;;;;;8.00;6.10;;;;;;;6.41;100.00;100237.86;106444;1260;62218;-49
2023/04/11 00:33:48;;;;;;;10.20;6.80;;;;;;;6.37;100.00;100232.44;105286;1256;59904;-50
2023/04/11 00:36:16;;;;;;;6.90;6.40;;;;;;;6.34;100.00;100233.23;105341;1256;72825;-50
2023/04/11 00:38:45;;;;;;;7.10;6.10;;;;;;;6.31;100.00;100226.33;105572;1257;68348;-48
2023/04/11 00:41:16;;;;;;;7.90;7.10;;;;;;;6.27;100.00;100224.48;106128;1259;73305;-48
2023/04/11 00:43:48;;;;;;;8.30;6.00;;;;;;;6.25;100.00;100221.69;105214;1256;59903;-52
2023/04/11 00:46:17;;;;;;;7.50;6.70;;;;;;;6.20;100.00;100218.59;105146;1257;60802;-50
2023/04/11 00:48:45;;;;;;;6.60;6.00;;;;;;;6.16;100.00;100220.45;105422;1261;72305;-53
2023/04/11 00:51:24;;;;;;;6.50;5.80;;;;;;;6.12;100.00;100220.39;105582;1259;66157;-49
2023/04/11 00:53:55;;;;;;;9.50;6.60;;;;;;;6.06;100.00;100222.81;106277;1256;72635;-49
2023/04/11 00:56:23;;;;;;;7.20;6.50;;;;;;;6.02;100.00;100217.59;105491;1259;61876;-50
2023/04/11 00:58:52;;;;;;;6.70;6.10;;;;;;;5.98;100.00;100217.48;105249;1257;59685;-49
2023/04/11 01:01:22;;;;;;;9.30;6.80;;;;;;;5.94;100.00;100220.62;105261;1259;72169;-48
2023/04/11 01:03:52;;;;;;;7.40;6.50;;;;;;;5.90;100.00;100224.95;108693;1261;67236;-49
2023/04/11 01:06:21;;;;;;;10.10;7.00;;;;;;;5.87;100.00;100222.52;105266;1264;73980;-51
2023/04/11 01:08:53;;;;;;;7.70;6.40;;;;;;;5.82;100.00;100224.75;105241;1259;62266;-50
2023/04/11 01:11:22;;;;;;;8.70;5.80;;;;;;;5.78;100.00;100225.03;105970;1255;59925;-49
2023/04/11 01:13:50;;;;;;;7.50;5.60;;;;;;;5.73;100.00;100221.91;108848;1256;75706;-51
2023/04/11 01:16:20;;;;;;;7.50;5.70;;;;;;;5.68;100.00;100221.14;107570;1256;66853;-45
2023/04/11 01:18:48;;;;;;;13.20;6.00;;;;;;;5.64;100.00;100222.27;108747;1256;72297;-52
2023/04/11 01:21:18;;;;;;;7.80;7.00;;;;;;;5.62;100.00;100219.46;106011;1259;61512;-48
2023/04/11 01:23:47;;;;;;;7.50;6.80;;;;;;;5.59;100.00;100213.67;108708;1256;60358;-50
2023/04/11 01:26:15;;;;;;;7.20;6.60;;;;;;;5.57;100.00;100214.41;108872;1256;73360;-52
2023/04/11 01:28:43;;;;;;;8.00;6.50;;;;;;;5.54;100.00;100209.48;108789;1256;66043;-51
2023/04/11 01:31:11;;;;;;;9.10;7.90;;;;;;;5.53;100.00;100208.43;108730;1256;70738;-51
2023/04/11 01:33:40;;;;;;;9.90;6.50;;;;;;;5.52;100.00;100205.63;108712;1256;62653;-50
2023/04/11 01:36:08;;;;;;;7.70;6.20;;;;;;;5.51;100.00;100201.91;108763;1257;60637;-50
2023/04/11 01:38:37;;;;;;;8.40;7.10;;;;;;;5.49;100.00;100200.34;107064;1256;73415;-52
2023/04/11 01:41:05;;;;;;;7.60;6.90;;;;;;;5.46;100.00;100198.98;105071;1264;67447;-51
2023/04/11 01:43:34;;;;;;;7.00;5.70;;;;;;;5.43;100.00;100195.85;106433;1256;71662;-48
2023/04/11 01:46:02;;;;;;;5.60;5.10;;;;;;;5.39;100.00;100196.99;108580;1256;61624;-49
2023/04/11 01:48:32;;;;;;;7.70;6.00;;;;;;;5.34;100.00;100196.04;108779;1256;59060;-49
2023/04/11 01:51:00;;;;;;;6.70;6.10;;;;;;;5.27;100.00;100192.79;108886;1256;74246;-50
2023/04/11 01:53:28;;;;;;;7.20;5.10;;;;;;;5.22;100.00;100187.89;108909;1256;65453;-50
2023/04/11 01:55:57;;;;;;;7.50;6.20;;;;;;;5.17;100.00;100188.17;107908;1256;71875;-49
2023/04/11 01:58:25;;;;;;;7.60;5.70;;;;;;;5.10;100.00;100183.51;105146;1259;61358;-50
2023/04/11 02:00:54;;;;;;;5.90;5.40;;;;;;;5.03;100.00;100177.77;105308;1261;59565;-50
2023/04/11 02:03:23;;;;;;;6.80;5.40;;;;;;;4.99;100.00;100176.97;107174;1259;73266;-50
2023/04/11 02:05:51;;;;;;;8.10;5.90;;;;;;;4.93;100.00;100175.30;105269;1257;67031;-49
2023/04/11 02:08:27;;;;;;;8.50;6.90;;;;;;;4.88;100.00;100178.23;105141;1258;71544;-50
2023/04/11 02:10:56;;;;;;;6.70;5.70;;;;;;;4.83;100.00;100176.36;107787;1256;62678;-48
2023/04/11 02:13:24;;;;;;;6.30;5.50;;;;;;;4.79;100.00;100174.48;105267;1257;60474;-48
2023/04/11 02:15:52;;;;;;;8.30;7.00;;;;;;;4.75;100.00;100174.23;105076;1259;72206;-49
2023/04/11 02:18:23;;;;;;;9.10;5.70;;;;;;;4.71;100.00;100172.67;105030;1256;66659;-50
2023/04/11 02:20:52;;;;;;;8.70;5.70;;;;;;;4.67;100.00;100175.42;105393;1256;71888;-49
2023/04/11 02:23:22;;;;;;;8.30;7.50;;;;;;;4.62;100.00;100171.77;108816;1256;59373;-53
2023/04/11 02:25:51;;;;;;;9.80;6.30;;;;;;;4.57;100.00;100169.73;105471;1256;59756;-52
2023/04/11 02:28:20;;;;;;;6.20;5.60;;;;;;;4.55;100.00;100168.34;105323;1259;71891;-52
2023/04/11 02:30:49;;;;;;;7.90;6.30;;;;;;;4.54;100.00;100170.30;105055;1260;66167;-49
2023/04/11 02:33:19;;;;;;;8.90;8.10;;;;;;;4.52;100.00;100165.37;105692;1256;71702;-50
2023/04/11 02:35:47;;;;;;;9.50;6.40;;;;;;;4.49;100.00;100163.83;105349;1262;60084;-49
2023/04/11 02:38:16;;;;;;;8.10;7.30;;;;;;;4.45;100.00;100165.84;105968;1256;61781;-51
2023/04/11 02:40:46;;;;;;;8.50;6.60;;;;;;;4.41;100.00;100164.67;105033;1256;72981;-51
2023/04/11 02:43:17;;;;;;;8.50;7.10;;;;;;;4.36;100.00;100158.52;105156;1264;67633;-48
2023/04/11 02:45:45;;;;;;;10.70;6.50;;;;;;;4.33;100.00;100156.11;105039;1256;72111;-51
2023/04/11 02:48:14;;;;;;;9.50;6.70;;;;;;;4.31;100.00;100151.16;105680;1260;60278;-51
2023/04/11 02:50:45;;;;;;;8.90;6.60;;;;;;;4.28;100.00;100148.18;105429;1256;60368;-50
2023/04/11 02:53:15;;;;;;;8.00;6.80;;;;;;;4.25;100.00;100148.78;105634;1261;73530;-49
2023/04/11 02:55:48;;;;;;;7.70;6.90;;;;;;;4.21;100.00;100146.70;105504;1259;66575;-51
2023/04/11 02:58:18;;;;;;;9.60;7.10;;;;;;;4.18;100.00;100143.20;105556;1257;71942;-51
2023/04/11 03:00:48;;;;;;;7.40;6.30;;;;;;;4.13;100.00;100141.69;106689;1257;60699;-53
2023/04/11 03:03:25;;;;;;;7.60;6.70;;;;;;;4.08;100.00;100140.51;105255;1262;59702;-49
2023/04/11 03:05:55;;;;;;;7.40;5.30;;;;;;;4.03;100.00;100138.99;105484;1256;71038;-51
2023/04/11 03:08:24;;;;;;;10.00;6.80;;;;;;;3.99;100.00;100141.38;105655;1256;65652;-51
2023/04/11 03:10:55;;;;;;;8.40;5.80;;;;;;;3.95;100.00;100141.08;105128;1256;73098;-52
2023/04/11 03:13:25;;;;;;;7.20;6.40;;;;;;;3.93;100.00;100137.91;105179;1264;61130;-49
2023/04/11 03:15:53;;;;;;;9.60;7.40;;;;;;;3.92;100.00;100140.40;105283;1256;60792;-52
2023/04/11 03:18:22;;;;;;;11.10;6.70;;;;;;;3.91;100.00;100137.78;105373;1260;73926;-51
2023/04/11 03:20:50;;;;;;;10.40;7.40;;;;;;;3.88;100.00;100139.05;105436;1262;67132;-49
2023/04/11 03:23:19;;;;;;;9.20;7.70;;;;;;;3.86;100.00;100141.21;105111;1265;71906;-51
2023/04/11 03:25:49;;;;;;;9.30;7.30;;;;;;;3.85;100.00;100145.14;105944;1256;60896;-53
2023/04/11 03:28:18;;;;;;;8.30;7.50;;;;;;;3.84;100.00;100137.86;106102;1262;60402;-51
2023/04/11 03:30:47;;;;;;;8.70;6.80;;;;;;;3.82;100.00;100134.89;105224;1257;74469;-51
2023/04/11 03:33:19;;;;;;;11.20;7.80;;;;;;;3.79;100.00;100135.11;105396;1263;68209;-50
2023/04/11 03:35:47;;;;;;;7.60;6.80;;;;;;;3.78;100.00;100135.84;105311;1260;72814;-51
2023/04/11 03:38:15;;;;;;;14.00;8.40;;;;;;;3.77;100.00;100139.74;105483;1261;60531;-49
2023/04/11 03:40:43;;;;;;;10.60;7.30;;;;;;;3.77;100.00;100139.20;105358;1257;60633;-49
2023/04/11 03:43:16;;;;;;;9.80;6.60;;;;;;;3.79;100.00;100140.25;105323;1262;73036;-45
2023/04/11 03:45:44;;;;;;;10.40;7.80;;;;;;;3.81;100.00;100140.95;105057;1256;67058;-50
2023/04/11 03:48:28;;;;;;;8.40;7.40;;;;;;;3.83;100.00;100142.17;105140;1256;72737;-52
2023/04/11 03:51:02;;;;;;;8.60;7.20;;;;;;;3.83;100.00;100141.96;105764;1263;60504;-50
2023/04/11 03:53:42;;;;;;;8.00;7.20;;;;;;;3.86;100.00;100142.63;105177;1256;60999;-51
2023/04/11 03:56:21;;;;;;;16.60;7.20;;;;;;;3.88;100.00;100141.37;105129;1258;72751;-51
2023/04/11 03:58:49;;;;;;;8.90;7.10;;;;;;;3.91;100.00;100139.71;106930;1258;65976;-52
2023/04/11 04:01:17;;;;;;;7.70;7.00;;;;;;;3.99;100.00;100134.27;105217;1256;72103;-48
2023/04/11 04:03:47;;;;;;;7.20;6.60;;;;;;;4.11;100.00;100135.14;106735;1262;62150;-51
2023/04/11 04:06:16;;;;;;;7.40;6.70;;;;;;;4.28;100.00;100131.85;105707;1256;60540;-50
2023/04/11 04:08:44;;;;;;;7.30;6.60;;;;;;;4.47;100.00;100129.19;105286;1261;75160;-52
2023/04/11 04:11:14;;;;;;;8.10;7.20;;;;;;;4.68;100.00;100125.27;108766;1256;66736;-53
2023/04/11 04:13:42;;;;;;;9.30;6.40;;;;;;;4.88;100.00;100128.80;108707;1259;71655;-52
2023/04/11 04:16:15;;;;;;;6.80;6.20;;;;;;;5.14;100.00;100124.91;108724;1256;60035;-51
2023/04/11 04:18:47;;;;;;;6.40;5.80;;;;;;;5.46;100.00;100120.85;108676;1256;59519;-52
2023/04/11 04:21:15;;;;;;;6.60;5.50;;;;;;;5.77;100.00;100116.06;108717;1256;73698;-51
2023/04/11 04:23:47;;;;;;;8.30;6.10;;;;;;;6.09;100.00;100116.58;108818;1256;69148;-52
2023/04/11 04:26:15;;;;;;;5.80;5.30;;;;;;;6.42;100.00;100107.71;108870;1256;73670;-51
2023/04/11 04:29:03;;;;;;;6.90;5.90;;;;;;;6.77;100.00;100108.56;108480;1256;59237;-50
2023/04/11 04:31:42;;;;;;;8.20;6.90;;;;;;;7.14;100.00;100107.35;106183;1257;60433;-51
2023/04/11 04:34:10;;;;;;;8.10;7.00;;;;;;;7.48;100.00;100107.05;108722;1256;73990;-52
2023/04/11 04:36:46;;;;;;;9.50;8.60;;;;;;;7.83;100.00;100104.54;108730;1256;67263;-53
2023/04/11 04:39:17;;;;;;;9.50;8.70;;;;;;;8.19;100.00;100105.17;108706;1256;73301;-53
2023/04/11 04:41:56;;;;;;;9.20;8.30;;;;;;;8.56;100.00;100106.63;108748;1256;58433;-52
2023/04/11 04:44:27;;;;;;;9.30;8.10;;;;;;;8.92;100.00;100114.13;108753;1256;59367;-52
2023/04/11 04:46:57;;;;;;;10.00;8.80;;;;;;;9.22;100.00;100116.23;108799;1256;71676;-52
2023/04/11 04:49:27;;;;;;;14.10;9.30;;;;;;;9.40;100.00;100116.81;108894;1256;68269;-52
2023/04/11 04:51:55;;;;;;;11.50;8.10;;;;;;;9.52;100.00;100116.71;108690;1256;72861;-52
2023/04/11 04:54:30;;;;;;;10.60;7.70;;;;;;;9.56;100.00;100118.73;108540;1256;58780;-52
2023/04/11 04:56:58;;;;;;;13.30;8.60;;;;;;;9.56;100.00;100116.75;108735;1256;60656;-52
2023/04/11 04:59:26;;;;;;;8.70;7.60;;;;;;;9.53;100.00;100118.98;108759;1256;71911;-52
2023/04/11 05:01:59;;;;;;;14.30;7.50;;;;;;;9.48;100.00;100113.63;108650;1256;67148;-52
2023/04/11 05:04:29;;;;;;;11.30;7.80;;;;;;;9.46;100.00;100114.41;106134;1262;71650;-51
2023/04/11 05:06:59;;;;;;;12.00;7.70;;;;;;;9.47;100.00;100116.17;105181;1261;60370;-50
2023/04/11 05:09:29;;;;;;;8.90;5.80;;;;;;;9.51;100.00;100111.41;104975;1258;61034;-52
2023/04/11 05:12:08;;;;;;;8.50;7.00;;;;;;;9.56;100.00;100113.01;108728;1256;73788;-52
2023/04/11 05:14:39;;;;;;;10.30;6.60;;;;;;;9.60;100.00;100114.27;107558;1261;68083;-49
2023/04/11 05:17:10;;;;;;;7.00;4.30;;;;;;;9.65;100.00;100115.16;104852;1257;72146;-50
2023/04/11 05:19:39;;;;;;;8.30;6.30;;;;;;;9.68;100.00;100112.88;105780;1256;60537;-51
2023/04/11 05:22:08;;;;;;;5.50;5.00;;;;;;;9.73;100.00;100111.96;105149;1256;60980;-52
2023/04/11 05:24:39;;;;;;;6.50;4.40;;;;;;;9.78;100.00;100111.77;105278;1257;73448;-53
2023/04/11 05:27:09;;;;;;;5.80;4.60;;;;;;;9.83;100.00;100110.11;109005;1253;68364;-52
2023/04/11 05:29:37;;;;;;;4.00;3.40;;;;;;;9.92;100.00;100113.39;105407;1253;72702;-52
2023/04/11 05:32:11;;;;;;;;;;;;;;;9.99;100.00;100115.04;104524;1253;60048;-51
2023/04/11 05:34:54;;;;;;;9.00;4.40;;;;;;;10.08;100.00;100114.50;105020;1253;60536;-52
2023/04/11 05:37:43;;;;;;;3.30;3.00;;;;;;;10.18;100.00;100117.36;108948;1253;74380;-52
2023/04/11 05:40:13;;;;;;;9.30;4.00;;;;;;;10.25;100.00;100115.63;108489;1258;65647;-48
2023/04/11 05:42:41;;;;;;;7.10;4.80;;;;;;;10.33;100.00;100116.38;107648;1253;70913;-53
2023/04/11 05:45:11;;;;;;;4.20;3.60;;;;;;;10.38;100.00;100118.30;105459;1253;60881;-51
2023/04/11 05:47:39;;;;;;;3.70;3.30;;;;;;;10.45;100.00;100120.86;105323;1253;62167;-51
2023/04/11 05:50:09;;;;;;;5.00;2.90;;;;;;;10.56;100.00;100122.23;105428;1256;71747;-52
2023/04/11 05:52:37;;;;;;;5.30;3.30;;;;;;;10.66;100.00;100125.54;105298;1259;66820;-51
2023/04/11 05:55:06;;;;;;;5.30;3.60;;;;;;;10.74;100.00;100125.41;105949;1253;71361;-50
2023/04/11 05:57:40;;;;;;;8.20;4.30;;;;;;;10.78;100.00;100131.50;105471;1254;60902;-49
2023/04/11 06:00:13;;;;;;;4.20;3.30;;;;;;;10.82;100.00;100131.11;105423;1256;60452;-52
2023/04/11 06:02:42;;;;;;;5.20;4.30;;;;;;;10.86;100.00;100133.13;105613;1253;73657;-50
2023/04/11 06:05:16;;;;;;;4.50;4.10;;;;;;;10.90;100.00;100127.21;105378;1253;65957;-52
2023/04/11 06:07:46;;;;;;;4.30;3.60;;;;;;;10.86;100.00;100131.50;105941;1255;71609;-52
2023/04/11 06:10:14;;;;;;;6.20;4.00;;;;;;;10.83;100.00;100134.71;105513;1256;61240;-50
2023/04/11 06:12:49;;;;;;;;;;;;;;;10.84;100.00;100131.59;105174;1258;60641;-51
2023/04/11 06:15:18;;;;;;;3.10;2.40;;;;;;;10.90;100.00;100132.79;105830;1257;74125;-52
2023/04/11 06:17:46;;;;;;;4.30;3.10;;;;;;;10.96;100.00;100130.88;104667;1254;67206;-51
2023/04/11 06:20:16;;;;;;;2.70;2.40;;;;;;;11.04;100.00;100135.75;104496;1255;72058;-51
2023/04/11 06:22:45;;;;;;;10.30;3.60;;;;;;;11.10;100.00;100134.95;104673;1253;61481;-51
2023/04/11 06:25:14;;;;;;;4.80;2.40;;;;;;;11.15;100.00;100131.48;105428;1259;60419;-51
2023/04/11 06:27:44;;;;;;;3.20;2.80;;;;;;;11.22;100.00;100130.98;105631;1260;74695;-51
2023/04/11 06:30:13;;;;;;;5.50;3.40;;;;;;;11.29;100.00;100131.73;105628;1258;67046;-51
2023/04/11 06:32:42;;;;;;;8.30;3.10;;;;;;;11.36;100.00;100129.45;106350;1253;73571;-52
2023/04/11 06:35:11;;;;;;;7.70;3.30;;;;;;;11.42;100.00;100129.71;105419;1258;60803;-50
2023/04/11 06:37:41;;;;;;;5.80;3.40;;;;;;;11.48;100.00;100133.77;105591;1256;60647;-51
2023/04/11 06:40:12;;;;;;;4.30;2.80;;;;;;;11.51;100.00;100135.98;105526;1258;72924;-50
2023/04/11 06:42:41;;;;;;;13.30;3.70;;;;;;;11.52;100.00;100133.92;105627;1254;66414;-48
2023/04/11 06:45:10;;;;;;;6.20;2.60;;;;;;;11.55;100.00;100132.20;105604;1253;71614;-50
2023/04/11 06:47:39;;;;;;;7.80;4.00;;;;;;;11.51;100.00;100129.48;106147;1257;61057;-51
2023/04/11 06:50:07;;;;;;;6.10;3.30;;;;;;;11.51;100.00;100128.42;105662;1253;60445;-49
2023/04/11 06:52:35;;;;;;;7.00;3.20;;;;;;;11.54;100.00;100132.75;105916;1256;75019;-52
2023/04/11 06:55:06;;;;;;;3.90;2.40;;;;;;;11.56;100.00;100126.75;107132;1258;66040;-51
2023/04/11 06:57:34;;;;;;;4.60;2.60;;;;;;;11.54;100.00;100128.62;105417;1253;72078;-52
2023/04/11 07:00:05;;;;;;;3.90;1.70;;;;;;;11.56;100.00;100130.87;105372;1258;60535;-51
2023/04/11 07:02:35;;;;;;;3.70;1.70;;;;;;;11.59;100.00;100123.34;108949;1254;59636;-53
2023/04/11 07:05:04;;;;;;;8.00;2.30;;;;;;;11.64;100.00;100115.05;105710;1253;74306;-52
2023/04/11 07:07:32;;;;;;;4.00;1.70;;;;;;;11.72;100.00;100117.54;105410;1256;66994;-52
2023/04/11 07:10:00;;;;;;;5.60;1.70;;;;;;;11.79;100.00;100113.46;105406;1258;72804;-52
2023/04/11 07:12:28;;;;;;;5.90;1.60;;;;;;;11.85;100.00;100113.69;106185;1257;60634;-51
2023/04/11 07:15:03;;;;;;;3.10;1.10;;;;;;;11.89;100.00;100116.77;105436;1253;61781;-53
2023/04/11 07:17:32;;;;;;;4.10;1.50;;;;;;;11.94;100.00;100111.48;106374;1255;75443;-52
2023/04/11 07:20:00;;;;;;;3.10;1.40;;;;;;;12.00;100.00;100110.65;104923;1257;67595;-52
2023/04/11 07:22:29;;;;;;;4.70;1.50;;;;;;;12.06;100.00;100111.25;109089;1256;70399;-53
2023/04/11 07:24:57;;;;;;;3.90;1.20;;;;;;;12.12;100.00;100114.89;109087;1253;58989;-52
2023/04/11 07:27:25;;;;;;;2.30;1.10;;;;;;;12.16;100.00;100107.55;109162;1255;58819;-52
2023/04/11 07:29:55;;;;;;;2.60;1.40;;;;;;;12.18;100.00;100109.05;109106;1254;73334;-53
2023/04/11 07:32:23;;;;;;;3.90;1.20;;;;;;;12.24;100.00;100100.10;109100;1253;66588;-53
2023/04/11 07:34:51;;;;;;;3.80;1.60;;;;;;;12.33;100.00;100099.30;109159;1253;73266;-53
2023/04/11 07:37:19;;;;;;;4.20;1.30;;;;;;;12.43;100.00;100102.75;109062;1253;60355;-53
2023/04/11 07:39:47;;;;;;;4.70;1.30;;;;;;;12.52;100.00;100096.35;109078;1253;59541;-53
2023/04/11 07:42:16;;;;;;;5.60;1.30;;;;;;;12.61;100.00;100097.30;109003;1255;72926;-54
2023/04/11 07:44:43;;;;;;;4.00;1.30;;;;;;;12.65;100.00;100094.62;109132;1253;68168;-52
2023/04/11 07:47:17;;;;;;;1.90;1.30;;;;;;;12.68;100.00;100095.00;107564;1257;71658;-52
2023/04/11 07:49:45;;;;;;;2.00;1.10;;;;;;;12.75;100.00;100090.30;108985;1254;59740;-52
2023/04/11 07:52:13;;;;;;;4.70;1.20;;;;;;;12.82;100.00;100090.81;109121;1254;59440;-52
2023/04/11 07:54:42;;;;;;;5.80;1.20;;;;;;;12.87;100.00;100096.49;109118;1253;73763;-52
2023/04/11 07:57:10;;;;;;;1.60;1.00;;;;;;;12.89;100.00;100093.16;109215;1256;67411;-52
2023/04/11 07:59:39;;;;;;;3.70;1.30;;;;;;;12.86;100.00;100095.63;109138;1253;72314;-53
2023/04/11 08:02:07;;;;;;;5.90;1.30;;;;;;;12.88;100.00;100088.87;109172;1255;60092;-52
2023/04/11 08:04:36;;;;;;;2.70;1.20;;;;;;;12.94;100.00;100096.86;109099;1255;60595;-52
2023/04/11 08:07:05;;;;;;;3.90;0.90;;;;;;;12.97;100.00;100101.07;109159;1253;72562;-52
2023/04/11 08:09:35;;;;;;;2.60;1.00;;;;;;;13.00;100.00;100090.09;109020;1256;66994;-51
2023/04/11 08:12:03;;;;;;;1.90;1.20;;;;;;;13.04;100.00;100089.29;109073;1254;71983;-54
2023/04/11 08:14:34;;;;;;;6.40;1.20;;;;;;;13.09;100.00;100089.98;109055;1257;59262;-53
2023/04/11 08:17:03;;;;;;;2.70;1.10;;;;;;;13.12;100.00;100082.02;109019;1254;61220;-53
2023/04/11 08:19:44;;;;;;;2.50;1.20;;;;;;;13.18;100.00;100087.50;106177;1255;74362;-53
2023/04/11 08:22:15;;;;;;;3.60;0.90;;;;;;;13.24;100.00;100086.48;107593;1256;66469;-51
2023/04/11 08:24:43;;;;;;;5.20;0.90;;;;;;;13.30;100.00;100089.20;105491;1259;70925;-52
2023/04/11 08:27:11;;;;;;;1.40;1.10;;;;;;;13.35;100.00;100085.33;105448;1257;60406;-52
2023/04/11 08:29:41;;;;;;;4.20;1.00;;;;;;;13.38;100.00;100084.23;106872;1255;61255;-52
2023/04/11 08:32:09;;;;;;;2.50;1.20;;;;;;;13.42;100.00;100088.20;105192;1254;73612;-51
2023/04/11 08:34:38;;;;;;;4.00;1.20;;;;;;;13.48;100.00;100081.17;105291;1265;66387;-52
2023/04/11 08:37:06;;;;;;;3.30;1.00;;;;;;;13.52;100.00;100080.25;105285;1254;72369;-52
2023/04/11 08:39:34;;;;;;;8.00;1.20;;;;;;;13.51;100.00;100070.36;105675;1257;61851;-52
2023/04/11 08:42:03;;;;;;;2.50;1.20;;;;;;;13.51;100.00;100068.77;105244;1258;61334;-52
2023/04/11 08:44:31;;;;;;;2.60;1.00;;;;;;;13.56;100.00;100065.39;105454;1258;75057;-53
2023/04/11 08:47:01;;;;;;;1.50;0.90;;;;;;;13.64;100.00;100066.23;105198;1259;68428;-52
2023/04/11 08:49:29;;;;;;;11.60;1.30;;;;;;;13.67;100.00;100063.71;105378;1257;73792;-51
2023/04/11 08:51:57;;;;;;;1.50;0.90;;;;;;;13.71;100.00;100063.13;104914;1268;61414;-52
2023/04/11 08:54:25;;;;;;;2.50;0.90;;;;;;;13.74;100.00;100052.35;104775;1259;60531;-51
2023/04/11 08:56:52;;;;;;;2.40;1.00;;;;;;;13.71;100.00;100048.86;105324;1254;74756;-54
2023/04/11 08:59:26;;;;;;;3.80;1.00;;;;;;;13.73;100.00;100048.59;105434;1254;68840;-51
2023/04/11 09:02:05;;;;;;;2.60;0.90;;;;;;;13.80;100.00;100049.41;105553;1257;70847;-51
2023/04/11 09:04:40;;;;;;;3.30;1.00;;;;;;;13.88;100.00;100048.66;105998;1253;60402;-52
2023/04/11 09:07:14;;;;;;;2.40;0.80;;;;;;;13.94;100.00;100050.63;105789;1255;60507;-50
2023/04/11 09:09:42;;;;;;;1.20;0.80;;;;;;;13.98;100.00;100046.25;108437;1255;72800;-52
2023/04/11 09:12:13;;;;;;;8.40;0.90;;;;;;;14.01;100.00;100044.98;105506;1253;66802;-51
2023/04/11 09:14:41;;;;;;;2.40;0.90;;;;;;;14.03;100.00;100040.77;105670;1257;71767;-52
2023/04/11 09:17:13;;;;;;;4.20;0.90;;;;;;;14.02;100.00;100037.36;105618;1266;61172;-51
2023/04/11 09:19:41;;;;;;;6.00;1.20;;;;;;;14.04;100.00;100031.48;105589;1257;62149;-51
2023/04/11 09:22:09;;;;;;;2.50;1.40;;;;;;;14.07;100.00;100028.42;106542;1254;73556;-52
2023/04/11 09:24:38;;;;;;;2.80;1.00;;;;;;;14.10;100.00;100020.66;105894;1256;68788;-48
2023/04/11 09:27:10;;;;;;;3.00;0.90;;;;;;;14.16;100.00;100022.66;105623;1256;72801;-52
2023/04/11 09:29:46;;;;;;;1.90;1.00;;;;;;;14.18;100.00;100018.56;105241;1257;60835;-53
2023/04/11 09:32:33;;;;;;;1.50;0.80;;;;;;;14.18;100.00;100018.21;105119;1255;60669;-50
2023/04/11 09:35:19;;;;;;;2.70;1.20;;;;;;;14.16;100.00;100011.10;106154;1257;71552;-51
2023/04/11 09:37:57;;;;;;;6.90;1.00;;;;;;;14.10;100.00;100003.34;105706;1259;66463;-51
2023/04/11 09:40:27;;;;;;;2.00;1.00;;;;;;;14.11;100.00;99996.97;105891;1257;73081;-52
2023/04/11 09:42:59;;;;;;;1.70;1.00;;;;;;;14.18;100.00;99988.94;106294;1256;60749;-52
2023/04/11 09:45:28;;;;;;;3.80;0.80;;;;;;;14.28;100.00;99986.55;106475;1257;60598;-52
2023/04/11 09:47:59;;;;;;;4.80;1.10;;;;;;;14.36;100.00;99979.91;106023;1256;73364;-52
2023/04/11 09:50:28;;;;;;;5.00;0.80;;;;;;;14.42;100.00;99971.52;105586;1257;66469;-50
2023/04/11 09:52:56;;;;;;;4.70;1.00;;;;;;;14.42;100.00;99975.66;105335;1255;71992;-49
2023/04/11 09:55:26;;;;;;;6.80;1.10;;;;;;;14.40;100.00;99973.76;105120;1254;60524;-53
2023/04/11 09:57:54;;;;;;;6.10;0.80;;;;;;;14.43;100.00;99973.20;105584;1258;60390;-53
2023/04/11 10:00:27;;;;;;;4.20;0.80;;;;;;;14.51;100.00;99965.88;105852;1257;72862;-53
2023/04/11 10:02:56;;;;;;;1.40;0.90;;;;;;;14.60;100.00;99961.70;106037;1257;66393;-49
2023/04/11 10:05:26;;;;;;;2.00;0.80;;;;;;;14.71;100.00;99965.33;106051;1253;72871;-52
2023/04/11 10:08:06;;;;;;;1.00;0.60;;;;;;;14.83;100.00;99964.22;105803;1253;60885;-51
2023/04/11 10:10:35;;;;;;;2.20;0.90;;;;;;;14.92;100.00;99966.73;105362;1254;60514;-49
2023/04/11 10:13:37;;;;;;;3.80;0.90;;;;;;;14.97;100.00;99964.27;105480;1258;75497;-51
2023/04/11 10:16:13;;;;;;;4.00;0.90;;;;;;;15.00;100.00;99964.92;105481;1258;67491;-52
2023/04/11 10:18:53;;;;;;;2.30;0.60;;;;;;;15.06;100.00;99959.67;106071;1253;73020;-52
2023/04/11 10:21:27;;;;;;;1.40;0.90;;;;;;;15.14;100.00;99948.50;108504;1252;61583;-51
2023/04/11 10:24:09;;;;;;;1.30;0.70;;;;;;;15.23;100.00;99946.85;105471;1257;60518;-50
2023/04/11 10:26:57;;;;;;;1.40;0.60;;;;;;;15.32;100.00;99953.37;105603;1256;74863;-51
2023/04/11 10:29:41;;;;;;;2.00;0.70;;;;;;;15.38;100.00;99944.63;106060;1257;66550;-51
2023/04/11 10:32:18;;;;;;;2.40;0.60;;;;;;;15.37;100.00;99938.35;105580;1256;72959;-52
2023/04/11 10:34:49;;;;;;;2.80;0.80;;;;;;;15.38;100.00;99937.08;109156;1252;58579;-53
2023/04/11 10:37:33;;;;;;;2.20;0.70;;;;;;;15.42;100.00;99931.70;109136;1253;60884;-53
2023/04/11 10:40:19;;;;;;;1.70;0.70;;;;;;;15.48;100.00;99928.96;109027;1257;73857;-53
2023/04/11 10:42:49;;;;;;;2.20;0.80;;;;;;;15.54;100.00;99926.23;109104;1254;65351;-53
2023/04/11 10:45:27;;;;;;;2.60;0.90;;;;;;;15.58;100.00;99926.35;106233;1255;71895;-52
2023/04/11 10:47:59;;;;;;;4.50;1.00;;;;;;;15.61;100.00;99916.19;105511;1253;60431;-52
2023/04/11 10:50:39;;;;;;;1.40;0.80;;;;;;;15.63;100.00;99916.60;109094;1256;60510;-53
2023/04/11 10:53:12;;;;;;;1.80;0.80;;;;;;;15.63;100.00;99918.95;109138;1253;72907;-53
2023/04/11 10:55:48;;;;;;;1.70;0.80;;;;;;;15.57;100.00;99915.76;108990;1254;68088;-52
2023/04/11 10:58:20;;;;;;;5.30;1.00;;;;;;;15.45;100.00;99915.20;109214;1254;72752;-53
2023/04/11 11:00:52;;;;;;;2.50;0.70;;;;;;;15.39;100.00;99902.08;109080;1254;60148;-53
2023/04/11 11:03:26;;;;;;;1.00;0.60;;;;;;;15.39;100.00;99907.35;109155;1253;59274;-52
2023/04/11 11:05:58;;;;;;;0.80;0.60;;;;;;;15.40;100.00;99901.23;109163;1253;74782;-53
2023/04/11 11:08:29;;;;;;;1.00;0.70;;;;;;;15.41;100.00;99898.85;109117;1251;68088;-53
2023/04/11 11:11:01;;;;;;;1.20;0.60;;;;;;;15.41;100.00;99897.20;109132;1252;70837;-53
2023/04/11 11:13:42;;;;;;;6.50;0.60;;;;;;;15.42;100.00;99893.53;109175;1252;59936;-53
2023/04/11 11:16:15;;;;;;;4.60;0.70;;;;;;;15.41;100.00;99892.50;109103;1254;60192;-53
2023/04/11 11:18:45;;;;;;;1.60;0.80;;;;;;;15.40;100.00;99885.73;109078;1254;74183;-53
2023/04/11 11:21:15;;;;;;;2.20;0.60;;;;;;;15.38;100.00;99881.02;109043;1253;66604;-52
2023/04/11 11:23:55;;;;;;;1.00;0.70;;;;;;;15.39;100.00;99883.27;108854;1252;71995;-52
2023/04/11 11:26:40;;;;;;;3.30;0.70;;;;;;;15.42;100.00;99878.38;108859;1254;60750;-51
2023/04/11 11:31:46;;;;;;;1.90;0.80;;;;;;;15.45;100.00;99896.41;102234;1291;600855;-52
2023/04/11 11:34:25;;;;;;;2.20;0.70;;;;;;;15.46;100.00;99925.86;104889;1273;59205;-52